createdAt,value
2022-12-18T00:02:07.631Z,0.79
2022-12-18T00:04:34.091Z,0.84
2022-12-18T00:07:00.647Z,0.85
2022-12-18T00:09:39.584Z,0.83
2022-12-18T00:14:42.959Z,0.61
2022-12-18T00:17:09.491Z,0.60
2022-12-18T00:19:35.950Z,0.66
2022-12-18T00:22:02.299Z,0.69
2022-12-18T00:24:28.950Z,0.64
2022-12-18T00:26:55.262Z,0.66
2022-12-18T00:29:21.589Z,0.64
2022-12-18T00:31:48.047Z,0.61
2022-12-18T00:34:14.853Z,0.70
2022-12-18T00:36:42.125Z,0.74
2022-12-18T00:39:08.646Z,0.76
2022-12-18T00:41:53.876Z,0.69
2022-12-18T00:44:20.295Z,0.81
2022-12-18T00:46:48.236Z,0.88
2022-12-18T00:49:16.891Z,0.93
2022-12-18T00:51:43.521Z,0.88
2022-12-18T00:54:11.777Z,0.83
2022-12-18T00:56:48.342Z,0.90
2022-12-18T00:59:15.919Z,0.99
2022-12-18T01:01:42.428Z,1.00
2022-12-18T01:04:09.050Z,1.03
2022-12-18T01:06:35.788Z,1.07
2022-12-18T01:09:03.569Z,1.03
2022-12-18T01:11:30.105Z,1.04
2022-12-18T01:13:56.467Z,1.13
2022-12-18T01:16:23.658Z,0.96
2022-12-18T01:18:54.556Z,1.05
2022-12-18T01:21:22.602Z,1.09
2022-12-18T01:23:53.025Z,1.07
2022-12-18T01:26:19.658Z,1.04
2022-12-18T01:28:46.287Z,1.08
2022-12-18T01:31:22.148Z,1.09
2022-12-18T01:33:48.697Z,1.14
2022-12-18T01:36:23.422Z,1.11
2022-12-18T01:38:51.033Z,1.09
2022-12-18T01:41:19.577Z,1.07
2022-12-18T01:43:53.611Z,1.15
2022-12-18T01:46:22.119Z,1.14
2022-12-18T01:48:51.593Z,0.92
2022-12-18T01:51:18.171Z,0.90
2022-12-18T01:53:46.878Z,0.90
2022-12-18T01:56:22.772Z,0.92
2022-12-18T01:59:02.350Z,0.97
2022-12-18T02:01:31.027Z,0.98
2022-12-18T02:04:17.569Z,1.03
2022-12-18T02:06:43.946Z,1.01
2022-12-18T02:09:16.188Z,1.05
2022-12-18T02:11:57.425Z,0.87
2022-12-18T02:14:30.155Z,0.75
2022-12-18T02:17:11.455Z,0.62
2022-12-18T02:19:44.570Z,0.63
2022-12-18T02:22:42.558Z,0.72
2022-12-18T02:25:21.028Z,0.65
2022-12-18T02:27:50.029Z,0.59
2022-12-18T02:30:16.645Z,0.60
2022-12-18T02:32:51.130Z,0.62
2022-12-18T02:35:23.833Z,0.62
2022-12-18T02:37:51.658Z,0.66
2022-12-18T02:40:18.924Z,0.74
2022-12-18T02:42:45.264Z,0.71
2022-12-18T02:45:11.608Z,0.64
2022-12-18T02:47:41.444Z,0.67
2022-12-18T02:50:36.629Z,0.55
2022-12-18T02:53:20.322Z,0.53
2022-12-18T02:56:03.910Z,0.40
2022-12-18T02:59:01.094Z,0.41
2022-12-18T03:01:44.116Z,0.56
2022-12-18T03:04:27.537Z,0.58
2022-12-18T03:07:00.872Z,0.60
2022-12-18T03:09:32.705Z,0.51
2022-12-18T03:12:31.049Z,0.51
2022-12-18T03:15:30.493Z,0.45
2022-12-18T03:18:10.096Z,0.53
2022-12-18T03:20:39.350Z,0.58
2022-12-18T03:23:12.343Z,0.53
2022-12-18T03:25:43.378Z,0.51
2022-12-18T03:28:15.008Z,0.54
2022-12-18T03:30:43.022Z,0.54
2022-12-18T03:33:35.540Z,0.58
2022-12-18T03:36:02.211Z,0.55
2022-12-18T03:38:28.586Z,0.53
2022-12-18T03:41:04.089Z,0.48
2022-12-18T03:43:51.617Z,0.53
2022-12-18T03:46:39.668Z,0.51
2022-12-18T03:49:20.290Z,0.32
2022-12-18T03:51:53.722Z,0.43
2022-12-18T03:54:21.361Z,0.39
2022-12-18T03:57:01.422Z,0.34
2022-12-18T03:59:30.109Z,0.36
2022-12-18T04:01:59.771Z,0.36
2022-12-18T04:04:28.583Z,0.35
2022-12-18T04:06:56.261Z,0.24
2022-12-18T04:09:22.791Z,0.18
2022-12-18T04:11:49.413Z,0.19
2022-12-18T04:14:17.970Z,0.33
2022-12-18T04:16:45.063Z,0.37
2022-12-18T04:19:11.625Z,0.41
2022-12-18T04:21:38.053Z,0.41
2022-12-18T04:24:04.556Z,0.46
2022-12-18T04:26:31.068Z,0.50
2022-12-18T04:28:57.533Z,0.43
2022-12-18T04:31:24.098Z,0.43
2022-12-18T04:33:50.525Z,0.48
2022-12-18T04:36:16.922Z,0.61
2022-12-18T04:38:43.334Z,0.59
2022-12-18T04:41:09.682Z,0.64
2022-12-18T04:43:36.233Z,0.70
2022-12-18T04:46:07.045Z,0.67
2022-12-18T04:48:34.201Z,0.72
2022-12-18T04:51:00.568Z,0.74
2022-12-18T04:53:26.920Z,0.68
2022-12-18T04:56:10.454Z,0.66
2022-12-18T04:58:38.070Z,0.70
2022-12-18T05:01:05.086Z,0.71
2022-12-18T05:03:32.044Z,0.78
2022-12-18T05:05:58.452Z,0.83
2022-12-18T05:08:24.928Z,0.82
2022-12-18T05:11:01.418Z,0.81
2022-12-18T05:13:28.666Z,0.85
2022-12-18T05:15:55.960Z,0.92
2022-12-18T05:18:23.985Z,0.90
2022-12-18T05:20:51.697Z,0.89
2022-12-18T05:23:18.205Z,0.91
2022-12-18T05:25:51.221Z,0.84
2022-12-18T05:28:17.569Z,0.89
2022-12-18T05:30:48.527Z,0.94
2022-12-18T05:33:14.972Z,0.89
2022-12-18T05:35:41.324Z,0.95
2022-12-18T05:38:07.657Z,0.95
2022-12-18T05:40:33.986Z,0.95
2022-12-18T05:43:00.317Z,0.88
2022-12-18T05:45:27.995Z,1.02
2022-12-18T05:47:54.324Z,1.05
2022-12-18T05:50:21.301Z,1.05
2022-12-18T05:52:47.625Z,1.00
2022-12-18T05:55:13.963Z,1.06
2022-12-18T05:57:40.293Z,1.08
2022-12-18T06:00:07.667Z,1.04
2022-12-18T06:02:34.072Z,1.11
2022-12-18T06:05:00.525Z,1.09
2022-12-18T06:07:26.860Z,1.05
2022-12-18T06:09:53.354Z,1.11
2022-12-18T06:12:19.693Z,1.09
2022-12-18T06:14:46.184Z,1.11
2022-12-18T06:17:12.526Z,1.12
2022-12-18T06:19:38.846Z,1.07
2022-12-18T06:22:05.162Z,1.15
2022-12-18T06:24:31.486Z,1.19
2022-12-18T06:26:57.833Z,1.10
2022-12-18T06:29:24.179Z,1.19
2022-12-18T06:31:50.719Z,1.19
2022-12-18T06:34:17.121Z,1.15
2022-12-18T06:36:43.750Z,1.10
2022-12-18T06:39:10.085Z,1.15
2022-12-18T06:41:36.486Z,1.18
2022-12-18T06:44:02.890Z,1.18
2022-12-18T06:46:29.254Z,1.12
2022-12-18T06:48:55.782Z,1.11
2022-12-18T06:51:23.774Z,1.17
2022-12-18T06:53:50.670Z,1.15
2022-12-18T06:56:17.400Z,1.16
2022-12-18T06:58:43.738Z,1.18
2022-12-18T07:01:11.945Z,1.12
2022-12-18T07:03:43.165Z,1.16
2022-12-18T07:06:21.089Z,1.11
2022-12-18T07:08:48.860Z,1.09
2022-12-18T07:11:15.824Z,1.13
2022-12-18T07:13:42.676Z,1.14
2022-12-18T07:16:20.866Z,1.15
2022-12-18T07:18:50.497Z,1.16
2022-12-18T07:21:19.984Z,0.98
2022-12-18T07:23:48.740Z,0.97
2022-12-18T07:26:17.148Z,1.04
2022-12-18T07:28:43.696Z,1.07
2022-12-18T07:31:14.175Z,1.15
2022-12-18T07:33:41.858Z,1.24
2022-12-18T07:36:10.998Z,1.14
2022-12-18T07:38:37.665Z,1.10
2022-12-18T07:41:12.304Z,1.22
2022-12-18T07:43:40.093Z,1.21
2022-12-18T07:46:07.970Z,1.23
2022-12-18T07:48:34.441Z,1.32
2022-12-18T07:51:06.627Z,1.35
2022-12-18T07:53:34.584Z,1.41
2022-12-18T07:56:26.401Z,1.40
2022-12-18T07:58:52.968Z,1.45
2022-12-18T08:01:19.357Z,1.39
2022-12-18T08:03:47.745Z,1.39
2022-12-18T08:06:14.598Z,1.37
2022-12-18T08:08:42.612Z,1.38
2022-12-18T08:11:08.982Z,1.39
2022-12-18T08:13:35.503Z,1.49
2022-12-18T08:16:04.729Z,1.45
2022-12-18T08:18:35.147Z,1.47
2022-12-18T08:21:12.192Z,1.52
2022-12-18T08:23:43.049Z,1.52
2022-12-18T08:26:11.609Z,1.50
2022-12-18T08:28:38.648Z,1.51
2022-12-18T08:31:05.523Z,1.51
2022-12-18T08:33:32.551Z,1.52
2022-12-18T08:35:59.932Z,1.14
2022-12-18T08:38:26.280Z,1.21
2022-12-18T08:41:11.821Z,1.30
2022-12-18T08:43:57.330Z,1.44
2022-12-18T08:46:26.262Z,1.43
2022-12-18T08:48:53.973Z,1.46
2022-12-18T08:51:21.454Z,1.56
2022-12-18T08:53:48.535Z,1.55
2022-12-18T08:56:15.946Z,1.56
2022-12-18T08:58:43.216Z,1.70
2022-12-18T09:01:12.255Z,1.70
2022-12-18T09:03:39.812Z,1.68
2022-12-18T09:06:06.855Z,1.69
2022-12-18T09:08:37.835Z,1.71
2022-12-18T09:11:04.669Z,1.78
2022-12-18T09:13:31.081Z,1.80
2022-12-18T09:15:57.450Z,1.43
2022-12-18T09:18:25.112Z,1.57
2022-12-18T09:20:53.716Z,1.68
2022-12-18T09:23:21.267Z,1.72
2022-12-18T09:25:47.974Z,1.77
2022-12-18T09:28:16.478Z,1.90
2022-12-18T09:30:46.708Z,1.95
2022-12-18T09:33:13.162Z,1.90
2022-12-18T09:35:40.302Z,1.99
2022-12-18T09:38:08.050Z,2.02
2022-12-18T09:40:40.846Z,1.98
2022-12-18T09:43:11.922Z,2.04
2022-12-18T09:45:53.029Z,2.13
2022-12-18T09:48:33.255Z,2.09
2022-12-18T09:51:06.043Z,2.06
2022-12-18T09:53:38.959Z,2.11
2022-12-18T09:56:06.220Z,2.04
2022-12-18T09:58:46.213Z,1.97
2022-12-18T10:01:21.680Z,2.06
2022-12-18T10:03:48.525Z,2.10
2022-12-18T10:06:22.324Z,2.15
2022-12-18T10:09:10.893Z,2.07
2022-12-18T10:11:49.381Z,2.01
2022-12-18T10:14:27.821Z,1.98
2022-12-18T10:17:22.100Z,2.12
2022-12-18T10:20:03.057Z,2.20
2022-12-18T10:22:47.727Z,2.21
2022-12-18T10:25:23.183Z,2.20
2022-12-18T10:28:01.118Z,2.25
2022-12-18T10:30:27.765Z,2.21
2022-12-18T10:32:55.036Z,2.22
2022-12-18T10:35:24.671Z,2.29
2022-12-18T10:38:13.822Z,2.16
2022-12-18T10:41:10.462Z,2.19
2022-12-18T10:43:40.526Z,2.21
2022-12-18T10:46:09.996Z,2.18
2022-12-18T10:48:48.889Z,2.08
2022-12-18T10:51:36.731Z,2.17
2022-12-18T10:54:06.603Z,2.15
2022-12-18T10:56:36.597Z,2.16
2022-12-18T10:59:08.884Z,2.20
2022-12-18T11:01:49.416Z,2.20
2022-12-18T11:04:31.979Z,2.29
2022-12-18T11:07:06.839Z,2.33
2022-12-18T11:09:35.915Z,2.23
2022-12-18T11:12:24.161Z,2.26
2022-12-18T11:14:53.076Z,2.25
2022-12-18T11:17:26.250Z,2.31
2022-12-18T11:19:55.597Z,2.27
2022-12-18T11:22:28.897Z,2.36
2022-12-18T11:25:30.285Z,2.43
2022-12-18T11:28:08.815Z,2.47
2022-12-18T11:30:38.347Z,2.37
2022-12-18T11:33:15.582Z,2.43
2022-12-18T11:35:54.820Z,2.40
2022-12-18T11:38:27.151Z,2.48
2022-12-18T11:41:44.586Z,2.50
2022-12-18T11:44:14.623Z,2.51
2022-12-18T11:46:50.251Z,2.49
2022-12-18T11:49:27.758Z,2.47
2022-12-18T11:52:12.933Z,2.48
2022-12-18T11:54:39.258Z,2.01
2022-12-18T11:57:35.759Z,1.68
2022-12-18T12:00:13.516Z,1.13
2022-12-18T12:03:02.187Z,0.94
2022-12-18T12:05:51.151Z,0.78
2022-12-18T12:08:48.525Z,0.70
2022-12-18T12:11:31.898Z,1.04
2022-12-18T12:14:27.310Z,1.36
2022-12-18T12:17:19.150Z,1.63
2022-12-18T12:20:21.160Z,1.85
2022-12-18T12:22:59.353Z,2.11
2022-12-18T12:25:45.559Z,1.58
2022-12-18T12:28:36.744Z,1.77
2022-12-18T12:31:24.928Z,1.49
2022-12-18T12:34:10.141Z,1.61
2022-12-18T12:37:03.355Z,1.52
2022-12-18T12:39:35.422Z,1.47
2022-12-18T12:42:23.487Z,1.06
2022-12-18T12:44:57.097Z,1.21
2022-12-18T12:47:39.108Z,1.37
2022-12-18T12:50:16.069Z,1.07
2022-12-18T12:52:48.126Z,1.24
2022-12-18T12:55:33.360Z,1.54
2022-12-18T12:58:16.208Z,1.83
2022-12-18T13:00:55.503Z,1.88
2022-12-18T13:03:34.909Z,1.99
2022-12-18T13:06:10.483Z,1.83
2022-12-18T13:08:57.589Z,1.75
2022-12-18T13:12:04.021Z,1.78
2022-12-18T13:14:36.468Z,1.62
2022-12-18T13:17:30.219Z,1.70
2022-12-18T13:20:10.206Z,1.99
2022-12-18T13:22:42.684Z,1.90
2022-12-18T13:25:32.942Z,1.73
2022-12-18T13:28:06.322Z,1.53
2022-12-18T13:30:33.142Z,1.74
2022-12-18T13:33:14.816Z,1.93
2022-12-18T13:35:48.810Z,2.04
2022-12-18T13:38:38.142Z,2.27
2022-12-18T13:41:19.688Z,2.24
2022-12-18T13:43:59.126Z,2.39
2022-12-18T13:46:46.603Z,2.49
2022-12-18T13:49:12.969Z,2.45
2022-12-18T13:51:43.852Z,2.51
2022-12-18T13:54:35.946Z,2.54
2022-12-18T13:57:03.901Z,2.30
2022-12-18T13:59:40.494Z,2.41
2022-12-18T14:02:16.718Z,2.43
2022-12-18T14:04:47.295Z,2.43
2022-12-18T14:07:20.210Z,2.59
2022-12-18T14:09:52.272Z,2.61
2022-12-18T14:12:44.156Z,2.67
2022-12-18T14:15:27.212Z,2.71
2022-12-18T14:17:58.144Z,2.59
2022-12-18T14:20:26.095Z,2.33
2022-12-18T14:22:52.908Z,1.83
2022-12-18T14:25:22.198Z,1.73
2022-12-18T14:28:08.652Z,1.42
2022-12-18T14:30:43.280Z,1.42
2022-12-18T14:33:17.777Z,1.68
2022-12-18T14:36:05.937Z,1.75
2022-12-18T14:38:40.116Z,1.89
2022-12-18T14:41:12.659Z,1.98
2022-12-18T14:43:42.144Z,2.11
2022-12-18T14:46:29.560Z,2.17
2022-12-18T14:48:57.170Z,2.35
2022-12-18T14:51:26.822Z,2.54
2022-12-18T14:54:01.692Z,2.56
2022-12-18T14:56:30.015Z,2.70
2022-12-18T14:59:05.641Z,2.77
2022-12-18T15:01:35.181Z,2.70
2022-12-18T15:04:03.096Z,2.78
2022-12-18T15:06:34.181Z,2.76
2022-12-18T15:09:02.407Z,2.78
2022-12-18T15:11:32.767Z,2.81
2022-12-18T15:14:00.830Z,2.81
2022-12-18T15:16:27.424Z,2.79
2022-12-18T15:18:54.377Z,2.75
2022-12-18T15:21:21.839Z,2.74
2022-12-18T15:23:53.098Z,2.83
2022-12-18T15:26:21.624Z,2.95
2022-12-18T15:28:52.158Z,2.86
2022-12-18T15:31:18.530Z,2.85
2022-12-18T15:34:01.568Z,2.78
2022-12-18T15:36:27.892Z,2.81
2022-12-18T15:39:04.547Z,2.89
2022-12-18T15:41:34.484Z,2.84
2022-12-18T15:44:03.639Z,2.84
2022-12-18T15:46:31.658Z,2.77
2022-12-18T15:49:02.364Z,2.75
2022-12-18T15:51:35.627Z,2.72
2022-12-18T15:54:05.672Z,2.72
2022-12-18T15:56:51.242Z,2.71
2022-12-18T15:59:20.222Z,2.71
2022-12-18T16:01:52.209Z,2.73
2022-12-18T16:04:21.434Z,2.67
2022-12-18T16:07:13.900Z,2.63
2022-12-18T16:09:36.377Z,2.66
2022-12-18T16:12:02.790Z,2.62
2022-12-18T16:14:31.258Z,2.59
2022-12-18T16:17:07.326Z,2.60
2022-12-18T16:19:33.638Z,2.65
2022-12-18T16:22:00.368Z,2.66
2022-12-18T16:24:29.205Z,2.63
2022-12-18T16:26:57.508Z,2.66
2022-12-18T16:29:27.719Z,2.66
2022-12-18T16:31:55.179Z,2.63
2022-12-18T16:34:26.762Z,2.58
2022-12-18T16:37:05.595Z,2.63
2022-12-18T16:39:36.041Z,2.59
2022-12-18T16:42:05.605Z,2.51
2022-12-18T16:44:33.206Z,2.56
2022-12-18T16:47:02.718Z,2.56
2022-12-18T16:49:29.745Z,2.61
2022-12-18T16:51:56.191Z,2.56
2022-12-18T16:54:22.638Z,2.57
2022-12-18T16:56:51.296Z,2.57
2022-12-18T16:59:18.046Z,2.53
2022-12-18T17:01:44.492Z,2.54
2022-12-18T17:04:11.275Z,2.53
2022-12-18T17:06:43.160Z,2.58
2022-12-18T17:09:15.014Z,2.59
2022-12-18T17:11:41.861Z,2.67
2022-12-18T17:14:20.014Z,2.65
2022-12-18T17:16:47.061Z,2.64
2022-12-18T17:19:17.321Z,2.61
2022-12-18T17:21:45.446Z,2.52
2022-12-18T17:24:11.902Z,2.54
2022-12-18T17:26:38.301Z,2.55
2022-12-18T17:29:04.859Z,2.53
2022-12-18T17:31:32.151Z,2.50
2022-12-18T17:33:58.842Z,2.51
2022-12-18T17:36:28.595Z,2.48
2022-12-18T17:38:57.158Z,2.34
2022-12-18T17:41:24.771Z,2.33
2022-12-18T17:43:59.160Z,2.35
2022-12-18T17:46:26.769Z,2.38
2022-12-18T17:48:55.912Z,2.35
2022-12-18T17:51:22.294Z,2.36
2022-12-18T17:53:49.091Z,2.36
2022-12-18T17:56:17.477Z,2.40
2022-12-18T17:58:44.674Z,2.38
2022-12-18T18:01:16.096Z,2.41
2022-12-18T18:03:43.358Z,2.29
2022-12-18T18:08:37.700Z,2.33
2022-12-18T18:11:24.775Z,2.37
2022-12-18T18:14:04.430Z,2.31
2022-12-18T18:16:42.057Z,2.27
2022-12-18T18:19:11.957Z,2.20
2022-12-18T18:21:40.913Z,2.13
2022-12-18T18:24:08.748Z,2.18
2022-12-18T18:26:36.419Z,2.17
2022-12-18T18:29:05.683Z,2.14
2022-12-18T18:31:34.643Z,2.09
2022-12-18T18:34:06.512Z,2.18
2022-12-18T18:36:34.498Z,2.20
2022-12-18T18:39:01.376Z,2.25
2022-12-18T18:41:29.821Z,2.22
2022-12-18T18:43:57.821Z,2.13
2022-12-18T18:46:24.977Z,2.00
2022-12-18T18:48:51.755Z,2.02
2022-12-18T18:51:21.541Z,2.00
2022-12-18T18:53:50.769Z,1.97
2022-12-18T18:59:07.053Z,1.91
2022-12-18T19:01:33.508Z,1.94
2022-12-18T19:04:00.829Z,1.96
2022-12-18T19:06:28.611Z,1.96
2022-12-18T19:08:56.847Z,1.93
2022-12-18T19:11:43.594Z,1.92
2022-12-18T19:14:11.962Z,1.92
2022-12-18T19:16:38.927Z,1.84
2022-12-18T19:19:05.619Z,1.88
2022-12-18T19:21:33.244Z,1.93
2022-12-18T19:24:01.327Z,2.05
2022-12-18T19:26:28.847Z,2.06
2022-12-18T19:29:01.359Z,1.94
2022-12-18T19:31:33.389Z,1.90
2022-12-18T19:34:02.527Z,1.89
2022-12-18T19:36:30.010Z,1.81
2022-12-18T19:38:59.265Z,1.86
2022-12-18T19:41:29.020Z,1.73
2022-12-18T19:43:55.690Z,1.76
2022-12-18T19:46:23.710Z,1.68
2022-12-18T19:48:50.824Z,1.72
2022-12-18T19:51:25.726Z,1.82
2022-12-18T19:53:58.173Z,1.74
2022-12-18T19:56:27.891Z,1.77
2022-12-18T19:58:55.251Z,1.74
2022-12-18T20:01:23.747Z,1.82
2022-12-18T20:03:52.322Z,1.74
2022-12-18T20:06:36.602Z,1.78
2022-12-18T20:09:05.992Z,1.72
2022-12-18T20:11:36.386Z,1.77
2022-12-18T20:14:12.374Z,1.78
2022-12-18T20:16:39.660Z,1.71
2022-12-18T20:19:07.671Z,1.63
2022-12-18T20:21:34.750Z,1.68
2022-12-18T20:24:01.871Z,1.64
2022-12-18T20:26:28.624Z,1.74
2022-12-18T20:28:55.814Z,1.75
2022-12-18T20:31:22.686Z,1.63
2022-12-18T20:33:50.991Z,1.68
2022-12-18T20:36:21.376Z,1.65
2022-12-18T20:38:51.493Z,1.70
2022-12-18T20:41:21.873Z,1.63
2022-12-18T20:43:48.527Z,1.50
2022-12-18T20:46:16.879Z,1.55
2022-12-18T20:48:44.620Z,1.49
2022-12-18T20:51:14.177Z,1.42
2022-12-18T20:53:42.163Z,1.59
2022-12-18T20:56:12.472Z,1.67
2022-12-18T20:58:38.826Z,1.82
2022-12-18T21:01:16.855Z,1.73
2022-12-18T21:03:45.809Z,1.68
2022-12-18T21:06:13.551Z,1.75
2022-12-18T21:08:40.139Z,1.81
2022-12-18T21:11:40.114Z,1.83
2022-12-18T21:14:13.651Z,1.67
2022-12-18T21:16:40.424Z,1.65
2022-12-18T21:19:06.962Z,1.76
2022-12-18T21:21:38.552Z,1.77
2022-12-18T21:24:06.862Z,1.82
2022-12-18T21:26:33.877Z,1.85
2022-12-18T21:29:03.793Z,1.79
2022-12-18T21:31:33.226Z,1.78
2022-12-18T21:34:02.459Z,1.76
2022-12-18T21:36:29.844Z,1.76
2022-12-18T21:38:57.004Z,1.71
2022-12-18T21:41:44.013Z,1.72
2022-12-18T21:44:13.506Z,1.75
2022-12-18T21:46:43.170Z,1.75
2022-12-18T21:49:10.519Z,1.69
2022-12-18T21:51:37.487Z,1.73
2022-12-18T21:54:04.404Z,1.69
2022-12-18T21:56:43.154Z,1.69
2022-12-18T21:59:09.789Z,1.77
2022-12-18T22:01:37.795Z,1.71
2022-12-18T22:04:04.576Z,1.68
2022-12-18T22:06:30.999Z,1.75
2022-12-18T22:08:57.589Z,1.71
2022-12-18T22:11:24.143Z,1.64
2022-12-18T22:13:50.604Z,1.59
2022-12-18T22:16:17.170Z,1.58
2022-12-18T22:18:43.708Z,1.55
2022-12-18T22:21:29.568Z,1.62
2022-12-18T22:24:02.075Z,1.57
2022-12-18T22:26:35.070Z,1.71
2022-12-18T22:29:23.790Z,1.69
2022-12-18T22:31:50.635Z,1.61
2022-12-18T22:34:21.914Z,1.70
2022-12-18T22:36:49.374Z,1.69
2022-12-18T22:39:21.431Z,1.72
2022-12-18T22:41:48.644Z,1.85
2022-12-18T22:44:17.465Z,1.89
2022-12-18T22:46:50.770Z,1.88
2022-12-18T22:49:31.718Z,1.81
2022-12-18T22:51:59.838Z,1.84
2022-12-18T22:54:26.230Z,1.87
2022-12-18T22:56:52.750Z,1.81
2022-12-18T22:59:23.011Z,1.74
2022-12-18T23:01:51.293Z,1.72
2022-12-18T23:04:28.363Z,1.81
2022-12-18T23:07:04.085Z,1.75
2022-12-18T23:09:30.462Z,1.74
2022-12-18T23:11:57.046Z,1.77
2022-12-18T23:14:23.401Z,1.68
2022-12-18T23:16:50.428Z,1.76
2022-12-18T23:19:19.553Z,1.79
2022-12-18T23:21:45.924Z,1.75
2022-12-18T23:24:12.352Z,1.67
2022-12-18T23:26:38.994Z,1.79
2022-12-18T23:29:05.453Z,1.82
2022-12-18T23:31:35.053Z,1.83
2022-12-18T23:34:03.158Z,1.88
2022-12-18T23:36:30.499Z,1.85
2022-12-18T23:39:01.160Z,1.93
2022-12-18T23:41:32.625Z,1.83
2022-12-18T23:44:00.442Z,1.90
2022-12-18T23:46:29.934Z,1.94
2022-12-18T23:48:58.916Z,1.86
2022-12-18T23:51:25.942Z,1.84
2022-12-18T23:53:54.201Z,1.97
2022-12-18T23:56:20.667Z,1.95
2022-12-18T23:58:48.945Z,1.85
